Vernon, California
Current Conditions -  °F | °C
As of 2:47 AM on Monday 20 Oct 2014 (Local Time) from KCQT Reporting Station
Clear Clear  
Wind Chill: 65°   Ceiling: Unl
Heat Index: 65°   Visibility: 10mi
Dew Point: 61°   Wind: 0mph
Humidity: 87%   Direction: NA
Pressure: 29.88"   Gusts: NA
Location:  34.0012°N, 118.221°W
Report Text: KCQT 200947Z AUTO 00000KT 10SM CLR 18/16 A2988 RMK AO2 SLP116 T01830161
Loading
Personal Weather Stations






























Interactive Weather Map
Tropical Storm Tracking
New forecast layout! Learn more

10-Day Weather Forecast

Advertisements
Track Severe Weather on mobile